createdAt,value
2018-02-22T00:01:27.994Z,77.04
2018-02-22T00:03:56.445Z,77.30
2018-02-22T00:06:24.833Z,77.49
2018-02-22T00:08:53.233Z,77.70
2018-02-22T00:11:22.409Z,77.63
2018-02-22T00:13:50.789Z,77.76
2018-02-22T00:16:19.194Z,78.06
2018-02-22T00:18:47.572Z,78.05
2018-02-22T00:21:15.961Z,78.22
2018-02-22T00:23:44.373Z,78.34
2018-02-22T00:26:12.794Z,78.50
2018-02-22T00:28:41.191Z,78.79
2018-02-22T00:31:09.597Z,78.67
2018-02-22T00:33:38.046Z,78.90
2018-02-22T00:36:06.449Z,79.13
2018-02-22T00:38:35.597Z,79.40
2018-02-22T00:41:03.997Z,79.58
2018-02-22T00:43:32.381Z,79.88
2018-02-22T00:46:00.819Z,79.99
2018-02-22T00:48:29.215Z,80.22
2018-02-22T00:50:57.585Z,80.57
2018-02-22T00:53:26.001Z,80.65
2018-02-22T00:55:54.438Z,80.75
2018-02-22T00:58:22.817Z,80.99
2018-02-22T01:00:51.244Z,81.23
2018-02-22T01:03:20.405Z,81.37
2018-02-22T01:05:48.852Z,81.39
2018-02-22T01:08:17.290Z,81.53
2018-02-22T01:10:45.670Z,81.75
2018-02-22T01:13:14.833Z,82.08
2018-02-22T01:15:43.231Z,82.24
2018-02-22T01:18:11.632Z,82.38
2018-02-22T01:20:40.781Z,82.67
2018-02-22T01:23:09.162Z,82.93
2018-02-22T01:25:37.555Z,83.14
2018-02-22T01:28:06.018Z,83.29
2018-02-22T01:30:34.406Z,83.27
2018-02-22T01:33:02.833Z,83.62
2018-02-22T01:35:32.001Z,83.60
2018-02-22T01:38:00.378Z,83.75
2018-02-22T01:40:28.761Z,84.12
2018-02-22T01:42:57.195Z,84.36
2018-02-22T01:45:25.597Z,84.52
2018-02-22T01:47:53.986Z,84.79
2018-02-22T01:50:22.424Z,84.95
2018-02-22T01:52:50.792Z,85.14
2018-02-22T01:55:19.943Z,85.58
2018-02-22T01:57:48.348Z,85.69
2018-02-22T02:00:16.713Z,85.84
2018-02-22T02:02:45.134Z,85.95
2018-02-22T02:05:13.547Z,86.08
2018-02-22T02:07:41.917Z,86.33
2018-02-22T02:10:10.371Z,86.48
2018-02-22T02:12:38.773Z,86.54
2018-02-22T02:15:07.181Z,86.56
2018-02-22T02:17:35.568Z,86.63
2018-02-22T02:20:03.992Z,86.82
2018-02-22T02:22:32.394Z,86.92
2018-02-22T02:25:00.772Z,87.05
2018-02-22T02:27:29.179Z,87.17
2018-02-22T02:29:57.576Z,87.26
2018-02-22T02:32:25.982Z,87.59
2018-02-22T02:34:54.372Z,87.65
2018-02-22T02:37:22.819Z,87.64
2018-02-22T02:39:51.971Z,87.79
2018-02-22T02:42:20.484Z,87.84
2018-02-22T02:44:48.829Z,87.94
2018-02-22T02:47:17.233Z,88.09
2018-02-22T02:49:45.658Z,88.37
2018-02-22T02:52:14.043Z,88.63
2018-02-22T02:54:42.439Z,88.72
2018-02-22T02:57:10.849Z,89.04
2018-02-22T02:59:39.250Z,89.29
2018-02-22T03:02:08.390Z,89.24
2018-02-22T03:04:36.799Z,89.41
2018-02-22T03:07:05.232Z,89.71
2018-02-22T03:09:33.618Z,89.83
2018-02-22T03:12:02.009Z,89.81
2018-02-22T03:14:30.400Z,89.99
2018-02-22T03:16:58.789Z,90.42
2018-02-22T03:19:27.196Z,90.60
2018-02-22T03:21:56.440Z,90.67
2018-02-22T03:24:24.935Z,90.84
2018-02-22T03:26:53.345Z,91.06
2018-02-22T03:29:21.786Z,91.24
2018-02-22T03:31:50.181Z,91.28
2018-02-22T03:34:18.582Z,91.36
2018-02-22T03:36:46.961Z,91.60
2018-02-22T03:39:16.141Z,91.60
2018-02-22T03:41:44.537Z,91.82
2018-02-22T03:44:12.909Z,91.54
2018-02-22T03:46:41.345Z,91.21
2018-02-22T03:49:09.721Z,91.03
2018-02-22T03:51:38.127Z,90.95
2018-02-22T03:54:06.519Z,91.02
2018-02-22T03:56:34.910Z,91.09
2018-02-22T03:59:03.342Z,91.08
2018-02-22T04:01:31.738Z,91.18
2018-02-22T04:04:00.148Z,91.64
2018-02-22T04:06:28.518Z,91.65
2018-02-22T04:08:56.915Z,91.87
2018-02-22T04:11:26.083Z,91.59
2018-02-22T04:13:54.474Z,91.35
2018-02-22T04:16:22.887Z,91.29
2018-02-22T04:18:51.255Z,91.24
2018-02-22T04:21:20.449Z,91.17
2018-02-22T04:23:49.618Z,91.42
2018-02-22T04:26:18.008Z,91.07
2018-02-22T04:28:46.400Z,91.51
2018-02-22T04:31:14.773Z,91.30
2018-02-22T04:33:43.174Z,91.55
2018-02-22T04:36:11.575Z,91.37
2018-02-22T04:38:40.787Z,91.49
2018-02-22T04:41:09.933Z,91.51
2018-02-22T04:43:39.077Z,91.60
2018-02-22T04:46:07.473Z,91.62
2018-02-22T04:48:35.917Z,91.24
2018-02-22T04:51:04.410Z,91.36
2018-02-22T04:53:32.783Z,91.27
2018-02-22T04:56:01.189Z,91.41
2018-02-22T04:58:29.590Z,91.18
2018-02-22T05:00:58.820Z,91.23
2018-02-22T05:03:27.244Z,91.36
2018-02-22T05:05:55.646Z,91.33
2018-02-22T05:08:24.798Z,91.37
2018-02-22T05:10:53.208Z,91.61
2018-02-22T05:13:21.603Z,91.76
2018-02-22T05:15:49.979Z,91.64
2018-02-22T05:18:18.397Z,91.66
2018-02-22T05:20:46.797Z,91.68
2018-02-22T05:23:15.172Z,92.00
2018-02-22T05:25:43.585Z,92.02
2018-02-22T05:28:11.959Z,92.16
2018-02-22T05:30:41.138Z,92.01
2018-02-22T05:33:09.563Z,92.13
2018-02-22T05:35:38.705Z,92.21
2018-02-22T05:38:07.089Z,92.34
2018-02-22T05:40:35.491Z,92.48
2018-02-22T05:43:03.941Z,92.31
2018-02-22T05:45:32.317Z,92.25
2018-02-22T05:48:00.812Z,92.24
2018-02-22T05:50:29.200Z,92.29
2018-02-22T05:52:57.599Z,92.17
2018-02-22T05:55:25.986Z,92.15
2018-02-22T05:57:54.414Z,92.24
2018-02-22T06:00:22.809Z,92.55
2018-02-22T06:02:51.217Z,92.99
2018-02-22T06:05:20.456Z,92.96
2018-02-22T06:07:48.869Z,92.66
2018-02-22T06:10:17.287Z,92.93
2018-02-22T06:12:46.433Z,91.70
2018-02-22T06:15:14.813Z,91.66
2018-02-22T06:17:43.240Z,91.23
2018-02-22T06:20:12.538Z,91.22
2018-02-22T06:22:40.791Z,91.46
2018-02-22T06:25:09.189Z,91.73
2018-02-22T06:27:38.369Z,91.89
2018-02-22T06:30:06.773Z,91.88
2018-02-22T06:32:35.909Z,91.92
2018-02-22T06:35:04.322Z,92.07
2018-02-22T06:37:32.723Z,92.16
2018-02-22T06:40:01.159Z,92.21
2018-02-22T06:42:29.586Z,92.26
2018-02-22T06:44:58.730Z,92.36
2018-02-22T06:47:27.126Z,92.17
2018-02-22T06:49:55.534Z,92.07
2018-02-22T06:52:24.725Z,92.02
2018-02-22T06:54:53.097Z,91.82
2018-02-22T06:57:21.508Z,92.03
2018-02-22T06:59:49.887Z,92.01
2018-02-22T07:02:18.272Z,91.84
2018-02-22T07:04:46.695Z,91.71
2018-02-22T07:07:15.090Z,92.20
2018-02-22T07:09:43.460Z,91.69
2018-02-22T07:12:11.866Z,91.30
2018-02-22T07:14:40.996Z,91.02
2018-02-22T07:17:09.385Z,91.09
2018-02-22T07:19:37.806Z,90.78
2018-02-22T07:22:06.183Z,90.53
2018-02-22T07:24:34.552Z,90.27
2018-02-22T07:27:02.968Z,89.97
2018-02-22T07:29:31.352Z,89.78
2018-02-22T07:31:59.773Z,89.77
2018-02-22T07:34:28.153Z,89.22
2018-02-22T07:36:56.519Z,88.88
2018-02-22T07:39:24.933Z,88.54
2018-02-22T07:41:53.322Z,88.15
2018-02-22T07:44:22.475Z,88.32
2018-02-22T07:46:50.884Z,88.42
2018-02-22T07:49:19.281Z,88.13
2018-02-22T07:51:48.422Z,87.06
2018-02-22T07:54:16.811Z,87.18
2018-02-22T07:56:45.206Z,86.75
2018-02-22T07:59:13.605Z,86.24
2018-02-22T08:01:41.992Z,86.37
2018-02-22T08:04:11.168Z,85.75
2018-02-22T08:06:39.571Z,85.70
2018-02-22T08:09:08.714Z,86.07
2018-02-22T08:11:37.133Z,87.08
2018-02-22T08:14:06.284Z,87.94
2018-02-22T08:16:34.655Z,87.93
2018-02-22T08:19:03.084Z,87.74
2018-02-22T08:21:31.522Z,87.92
2018-02-22T08:23:59.923Z,87.53
2018-02-22T08:26:28.395Z,87.59
2018-02-22T08:28:56.793Z,87.42
2018-02-22T08:31:25.212Z,87.62
2018-02-22T08:33:53.590Z,87.55
2018-02-22T08:36:21.968Z,87.49
2018-02-22T08:38:50.375Z,86.79
2018-02-22T08:41:18.777Z,85.54
2018-02-22T08:43:47.151Z,85.53
2018-02-22T08:46:15.602Z,83.98
2018-02-22T08:48:43.990Z,85.33
2018-02-22T08:51:12.370Z,84.07
2018-02-22T08:53:40.797Z,82.76
2018-02-22T08:56:09.942Z,82.63
2018-02-22T08:58:38.340Z,83.24
2018-02-22T09:01:07.473Z,83.58
2018-02-22T09:03:36.659Z,82.44
2018-02-22T09:06:05.813Z,81.76
2018-02-22T09:08:34.182Z,82.30
2018-02-22T09:11:02.582Z,82.79
2018-02-22T09:13:30.965Z,83.12
2018-02-22T09:15:59.339Z,83.55
2018-02-22T09:18:27.745Z,83.80
2018-02-22T09:20:56.143Z,83.93
2018-02-22T09:23:25.283Z,83.42
2018-02-22T09:25:53.654Z,83.55
2018-02-22T09:28:22.071Z,83.40
2018-02-22T09:30:50.449Z,82.32
2018-02-22T09:33:18.882Z,78.66
2018-02-22T09:35:47.262Z,62.69
2018-02-22T09:38:15.626Z,57.92
2018-02-22T09:40:44.027Z,63.09
2018-02-22T09:43:12.479Z,67.26
2018-02-22T09:45:40.887Z,67.75
2018-02-22T09:48:09.290Z,60.79
2018-02-22T09:50:37.686Z,53.42
2018-02-22T09:53:06.085Z,53.53
2018-02-22T09:55:35.237Z,54.55
2018-02-22T09:58:04.367Z,57.73
2018-02-22T10:00:32.751Z,62.58
2018-02-22T10:03:01.893Z,56.72
2018-02-22T10:05:30.283Z,51.37
2018-02-22T10:07:58.651Z,50.15
2018-02-22T10:10:27.057Z,50.32
2018-02-22T10:12:55.421Z,49.38
2018-02-22T10:15:23.816Z,49.48
2018-02-22T10:17:52.189Z,50.73
2018-02-22T10:20:20.573Z,54.22
2018-02-22T10:22:48.980Z,58.61
2018-02-22T10:25:18.124Z,64.07
2018-02-22T10:27:46.521Z,64.62
2018-02-22T10:30:14.906Z,65.17
2018-02-22T10:32:43.285Z,64.42
2018-02-22T10:35:11.670Z,66.18
2018-02-22T10:37:40.064Z,74.21
2018-02-22T10:40:09.203Z,66.04
2018-02-22T10:42:37.567Z,66.22
2018-02-22T10:45:06.011Z,69.07
2018-02-22T10:47:34.391Z,68.93
2018-02-22T10:50:02.766Z,69.60
2018-02-22T10:52:31.173Z,67.50
2018-02-22T10:54:59.560Z,67.01
2018-02-22T10:57:27.924Z,69.07
2018-02-22T10:59:56.333Z,69.15
2018-02-22T11:02:30.358Z,70.48
2018-02-22T11:04:58.760Z,70.56
2018-02-22T11:07:27.149Z,72.10
2018-02-22T11:09:55.532Z,73.18
2018-02-22T11:12:24.725Z,72.68
2018-02-22T11:14:53.132Z,70.99
2018-02-22T11:17:21.518Z,69.29
2018-02-22T11:19:49.888Z,68.58
2018-02-22T11:22:18.301Z,68.34
2018-02-22T11:24:46.666Z,68.52
2018-02-22T11:27:15.291Z,67.32
2018-02-22T11:29:43.951Z,66.82
2018-02-22T11:32:12.409Z,65.75
2018-02-22T11:34:40.810Z,63.84
2018-02-22T11:37:09.946Z,63.76
2018-02-22T11:39:38.401Z,64.29
2018-02-22T11:42:06.834Z,64.40
2018-02-22T11:44:35.214Z,64.62
2018-02-22T11:47:03.596Z,63.66
2018-02-22T11:49:32.006Z,64.64
2018-02-22T11:52:00.378Z,64.30
2018-02-22T11:54:28.779Z,61.25
2018-02-22T11:56:57.173Z,60.35
2018-02-22T11:59:25.601Z,60.52
2018-02-22T12:01:53.984Z,58.33
2018-02-22T12:04:22.352Z,56.02
2018-02-22T12:06:50.760Z,56.50
2018-02-22T12:09:19.135Z,57.03
2018-02-22T12:11:47.485Z,57.12
2018-02-22T12:14:15.894Z,56.67
2018-02-22T12:16:44.273Z,55.53
2018-02-22T12:19:12.650Z,53.77
2018-02-22T12:21:41.052Z,54.66
2018-02-22T12:24:09.463Z,56.62
2018-02-22T12:26:37.865Z,57.75
2018-02-22T12:29:06.267Z,57.07
2018-02-22T12:31:35.423Z,54.01
2018-02-22T12:34:03.802Z,52.91
2018-02-22T12:36:32.195Z,52.68
2018-02-22T12:39:00.574Z,53.11
2018-02-22T12:41:29.032Z,52.68
2018-02-22T12:43:58.199Z,52.62
2018-02-22T12:46:26.558Z,51.38
2018-02-22T12:48:54.982Z,51.23
2018-02-22T12:51:24.121Z,52.00
2018-02-22T12:53:52.518Z,51.08
2018-02-22T12:56:20.931Z,51.76
2018-02-22T12:58:50.062Z,51.29
2018-02-22T13:01:18.467Z,49.90
2018-02-22T13:03:46.836Z,48.97
2018-02-22T13:06:15.210Z,49.05
2018-02-22T13:08:43.605Z,50.34
2018-02-22T13:11:11.983Z,50.42
2018-02-22T13:13:40.394Z,50.39
2018-02-22T13:16:09.527Z,50.04
2018-02-22T13:18:37.918Z,48.67
2018-02-22T13:21:06.297Z,49.85
2018-02-22T13:23:34.693Z,48.00
2018-02-22T13:26:03.062Z,48.55
2018-02-22T13:28:31.456Z,48.23
2018-02-22T13:30:59.867Z,49.00
2018-02-22T13:33:46.798Z,48.82
2018-02-22T13:36:15.223Z,48.47
2018-02-22T13:39:01.322Z,47.56
2018-02-22T13:41:29.728Z,46.92
2018-02-22T13:44:16.677Z,46.00
2018-02-22T13:46:45.085Z,46.24
2018-02-22T13:49:31.288Z,46.21
2018-02-22T13:51:59.665Z,46.05
2018-02-22T13:54:28.105Z,44.45
2018-02-22T13:57:14.152Z,44.37
2018-02-22T13:59:42.545Z,44.88
2018-02-22T14:02:25.175Z,44.36
2018-02-22T14:04:53.596Z,45.02
2018-02-22T14:07:22.044Z,45.44
2018-02-22T14:09:50.420Z,45.26
2018-02-22T14:12:18.825Z,45.21
2018-02-22T14:14:47.208Z,44.46
2018-02-22T14:17:15.581Z,43.91
2018-02-22T14:19:43.997Z,42.07
2018-02-22T14:22:12.393Z,44.64
2018-02-22T14:24:41.544Z,44.33
2018-02-22T14:27:09.914Z,45.48
2018-02-22T14:29:38.301Z,46.55
2018-02-22T14:32:06.698Z,49.39
2018-02-22T14:34:35.101Z,48.84
2018-02-22T14:37:04.230Z,49.40
2018-02-22T14:39:32.637Z,50.84
2018-02-22T14:42:00.999Z,52.27
2018-02-22T14:44:29.402Z,51.88
2018-02-22T14:46:57.813Z,51.68
2018-02-22T14:49:26.945Z,50.80
2018-02-22T14:51:55.314Z,50.87
2018-02-22T14:54:23.701Z,50.61
2018-02-22T14:56:52.093Z,51.51
2018-02-22T14:59:20.513Z,52.22
2018-02-22T15:01:48.913Z,52.42
2018-02-22T15:04:17.303Z,53.17
2018-02-22T15:06:45.730Z,54.21
2018-02-22T15:09:14.098Z,54.87
2018-02-22T15:11:42.486Z,55.61
2018-02-22T15:14:10.899Z,55.71
2018-02-22T15:16:40.039Z,55.32
2018-02-22T15:19:08.458Z,55.08
2018-02-22T15:21:36.861Z,54.87
2018-02-22T15:24:05.321Z,55.18
2018-02-22T15:26:33.874Z,55.09
2018-02-22T15:29:02.261Z,54.83
2018-02-22T15:31:30.911Z,54.81
2018-02-22T15:33:59.609Z,55.66
2018-02-22T15:36:28.006Z,56.56
2018-02-22T15:38:56.366Z,56.73
2018-02-22T15:41:24.733Z,58.50
2018-02-22T15:43:53.146Z,59.87
2018-02-22T15:46:21.565Z,61.00
2018-02-22T15:48:49.925Z,61.82
2018-02-22T15:51:18.292Z,62.71
2018-02-22T15:53:47.848Z,63.34
2018-02-22T15:56:17.061Z,63.75
2018-02-22T15:58:46.112Z,64.28
2018-02-22T16:01:14.738Z,64.49
2018-02-22T16:03:43.286Z,65.00
2018-02-22T16:06:11.689Z,65.01
2018-02-22T16:08:40.095Z,65.29
2018-02-22T16:11:08.523Z,65.64
2018-02-22T16:13:37.654Z,65.52
2018-02-22T16:16:06.156Z,65.88
2018-02-22T16:18:34.641Z,66.04
2018-02-22T16:21:03.018Z,66.47
2018-02-22T16:23:31.385Z,66.69
2018-02-22T16:25:59.851Z,67.38
2018-02-22T16:28:28.257Z,67.87
2018-02-22T16:30:56.634Z,68.08
2018-02-22T16:33:25.006Z,68.31
2018-02-22T16:35:53.405Z,68.64
2018-02-22T16:38:21.940Z,68.83
2018-02-22T16:40:50.333Z,68.57
2018-02-22T16:43:18.734Z,68.83
2018-02-22T16:45:47.198Z,69.02
2018-02-22T16:48:15.674Z,69.39
2018-02-22T16:50:44.057Z,69.23
2018-02-22T16:53:12.588Z,69.22
2018-02-22T16:55:41.727Z,69.33
2018-02-22T16:58:10.107Z,69.06
2018-02-22T17:00:38.656Z,69.32
2018-02-22T17:03:07.040Z,69.11
2018-02-22T17:05:35.446Z,69.33
2018-02-22T17:08:03.817Z,69.33
2018-02-22T17:10:32.352Z,69.45
2018-02-22T17:13:01.632Z,69.26
2018-02-22T17:15:30.047Z,69.63
2018-02-22T17:17:58.458Z,69.56
2018-02-22T17:20:26.886Z,70.00
2018-02-22T17:22:55.292Z,70.11
2018-02-22T17:25:23.082Z,70.07
2018-02-22T17:27:56.938Z,70.15
2018-02-22T17:30:30.889Z,70.23
2018-02-22T17:32:59.266Z,70.56
2018-02-22T17:38:51.862Z,71.07
2018-02-22T17:41:35.101Z,70.98
2018-02-22T17:44:03.497Z,71.41
2018-02-22T17:46:31.878Z,71.52
2018-02-22T17:49:00.245Z,71.60
2018-02-22T17:51:28.639Z,71.56
2018-02-22T17:53:57.020Z,71.42
2018-02-22T17:56:25.408Z,71.87
2018-02-22T17:58:53.771Z,71.79
2018-02-22T18:01:22.142Z,71.96
2018-02-22T18:03:50.529Z,72.17
2018-02-22T18:06:18.890Z,72.36
2018-02-22T18:08:47.274Z,72.19
2018-02-22T18:11:15.658Z,72.46
2018-02-22T18:13:44.025Z,72.77
2018-02-22T18:16:12.419Z,72.81
2018-02-22T18:18:40.793Z,72.83
2018-02-22T18:21:09.153Z,72.94
2018-02-22T18:23:37.546Z,73.13
2018-02-22T18:26:06.195Z,73.55
2018-02-22T18:28:35.370Z,73.48
2018-02-22T18:31:03.742Z,73.50
2018-02-22T18:33:32.102Z,73.50
2018-02-22T18:36:00.494Z,73.58
2018-02-22T18:38:28.885Z,73.82
2018-02-22T18:41:00.213Z,74.00
2018-02-22T18:43:34.512Z,74.20
2018-02-22T18:46:02.942Z,74.16
2018-02-22T18:48:31.310Z,74.37
2018-02-22T18:50:59.674Z,74.54
2018-02-22T18:53:28.065Z,74.66
2018-02-22T18:55:56.450Z,74.76
2018-02-22T18:58:24.814Z,74.90
2018-02-22T19:00:53.207Z,75.08
2018-02-22T19:03:21.765Z,75.12
2018-02-22T19:05:50.329Z,75.30
2018-02-22T19:08:18.718Z,75.24
2018-02-22T19:10:47.080Z,75.40
2018-02-22T19:13:15.464Z,75.27
2018-02-22T19:15:43.835Z,75.36
2018-02-22T19:18:12.317Z,75.46
2018-02-22T19:20:40.876Z,75.61
2018-02-22T19:23:09.426Z,75.62
2018-02-22T19:25:37.786Z,75.81
2018-02-22T19:28:06.929Z,76.04
2018-02-22T19:30:36.073Z,76.32
2018-02-22T19:33:04.437Z,76.70
2018-02-22T19:35:32.820Z,76.86
2018-02-22T19:38:01.178Z,76.93
2018-02-22T19:40:30.346Z,76.76
2018-02-22T19:42:58.710Z,77.10
2018-02-22T19:45:27.093Z,77.37
2018-02-22T19:47:55.454Z,77.20
2018-02-22T19:50:23.841Z,77.40
2018-02-22T19:52:52.230Z,77.46
2018-02-22T19:55:20.589Z,77.87
2018-02-22T19:57:48.986Z,77.89
2018-02-22T20:00:17.350Z,78.06
2018-02-22T20:02:45.706Z,78.23
2018-02-22T20:05:14.125Z,78.50
2018-02-22T20:07:42.531Z,78.48
2018-02-22T20:10:11.661Z,78.58
2018-02-22T20:12:40.041Z,78.82
2018-02-22T20:15:08.438Z,78.89
2018-02-22T20:17:36.797Z,78.93
2018-02-22T20:20:05.166Z,79.10
2018-02-22T20:22:33.551Z,79.22
2018-02-22T20:25:01.909Z,79.31
2018-02-22T20:27:30.267Z,79.65
2018-02-22T20:29:58.653Z,79.77
2018-02-22T20:32:27.784Z,79.80
2018-02-22T20:34:56.156Z,79.72
2018-02-22T20:37:24.541Z,79.91
2018-02-22T20:39:52.902Z,80.06
2018-02-22T20:42:22.029Z,79.96
2018-02-22T20:44:50.403Z,79.88
2018-02-22T20:47:18.766Z,79.92
2018-02-22T20:49:47.137Z,80.02
2018-02-22T20:52:16.813Z,80.10
2018-02-22T20:54:50.869Z,80.06
2018-02-22T20:57:19.238Z,79.91
2018-02-22T20:59:48.365Z,79.87
2018-02-22T21:02:16.751Z,79.90
2018-02-22T21:04:45.112Z,79.98
2018-02-22T21:07:13.489Z,79.97
2018-02-22T21:09:41.848Z,80.02
2018-02-22T21:12:10.220Z,80.07
2018-02-22T21:14:39.364Z,80.14
2018-02-22T21:17:07.753Z,80.23
2018-02-22T21:19:36.153Z,79.93
2018-02-22T21:22:04.513Z,80.00
2018-02-22T21:24:32.894Z,80.24
2018-02-22T21:27:01.286Z,80.17
2018-02-22T21:29:29.650Z,80.36
2018-02-22T21:31:58.038Z,80.51
2018-02-22T21:34:26.398Z,80.08
2018-02-22T21:36:54.767Z,80.46
2018-02-22T21:39:23.228Z,80.64
2018-02-22T21:41:51.625Z,80.75
2018-02-22T21:44:19.998Z,80.83
2018-02-22T21:46:48.386Z,80.86
2018-02-22T21:49:16.754Z,80.91
2018-02-22T21:51:45.154Z,81.29
2018-02-22T21:54:13.518Z,81.24
2018-02-22T21:56:41.882Z,81.45
2018-02-22T21:59:10.278Z,81.48
2018-02-22T22:01:38.643Z,81.63
2018-02-22T22:04:07.009Z,81.91
2018-02-22T22:06:35.404Z,81.81
2018-02-22T22:09:03.890Z,81.80
2018-02-22T22:11:32.301Z,81.90
2018-02-22T22:14:00.688Z,81.81
2018-02-22T22:16:29.845Z,81.89
2018-02-22T22:18:58.214Z,81.75
2018-02-22T22:21:26.600Z,81.60
2018-02-22T22:23:55.018Z,81.82
2018-02-22T22:26:23.409Z,81.64
2018-02-22T22:28:51.778Z,81.49
2018-02-22T22:31:20.218Z,81.28
2018-02-22T22:33:48.629Z,80.99
2018-02-22T22:36:17.017Z,81.19
2018-02-22T22:38:45.425Z,80.90
2018-02-22T22:41:14.558Z,80.73
2018-02-22T22:43:43.005Z,80.67
2018-02-22T22:46:12.236Z,80.85
2018-02-22T22:48:40.602Z,80.95
2018-02-22T22:51:09.002Z,80.80
2018-02-22T22:53:37.407Z,80.65
2018-02-22T22:56:05.776Z,80.16
2018-02-22T22:58:34.129Z,79.63
2018-02-22T23:01:02.531Z,79.80
2018-02-22T23:03:30.897Z,79.68
2018-02-22T23:05:59.265Z,79.63
2018-02-22T23:08:27.650Z,80.01
2018-02-22T23:10:56.015Z,79.92
2018-02-22T23:13:24.461Z,79.83
2018-02-22T23:15:52.831Z,79.97
2018-02-22T23:18:21.199Z,80.07
2018-02-22T23:20:49.586Z,80.25
2018-02-22T23:23:17.965Z,80.34
2018-02-22T23:25:46.402Z,80.18
2018-02-22T23:28:14.766Z,80.23
2018-02-22T23:30:43.153Z,80.07
2018-02-22T23:33:11.546Z,79.98
2018-02-22T23:35:39.913Z,79.84
2018-02-22T23:38:08.278Z,79.44
2018-02-22T23:40:42.699Z,79.28
2018-02-22T23:43:11.064Z,78.83
2018-02-22T23:45:40.203Z,78.50
2018-02-22T23:48:08.591Z,78.19
2018-02-22T23:50:36.960Z,78.30
2018-02-22T23:53:05.337Z,78.22
2018-02-22T23:55:33.710Z,77.96
2018-02-22T23:58:02.112Z,77.59
